createdAt,value
2023-05-19T00:01:21.200Z,100533.81
2023-05-19T00:03:53.894Z,100543.75
2023-05-19T00:06:25.424Z,100535.88
2023-05-19T00:09:05.640Z,100534.66
2023-05-19T00:11:36.201Z,100546.13
2023-05-19T00:14:05.341Z,100535.88
2023-05-19T00:16:34.590Z,100531.22
2023-05-19T00:19:03.068Z,100524.78
2023-05-19T00:21:31.387Z,100531.66
2023-05-19T00:23:58.708Z,100534.06
2023-05-19T00:26:28.238Z,100523.22
2023-05-19T00:29:01.711Z,100534.56
2023-05-19T00:31:28.671Z,100526.84
2023-05-19T00:33:55.697Z,100522.91
2023-05-19T00:36:22.675Z,100521.97
2023-05-19T00:38:51.351Z,100515.59
2023-05-19T00:41:18.486Z,100518.44
2023-05-19T00:43:45.529Z,100522.41
2023-05-19T00:46:12.686Z,100518.50
2023-05-19T00:48:39.672Z,100518.75
2023-05-19T00:51:07.276Z,100512.84
2023-05-19T00:53:35.202Z,100517.59
2023-05-19T00:56:03.302Z,100517.34
2023-05-19T00:58:34.986Z,100521.56
2023-05-19T01:01:03.552Z,100519.41
2023-05-19T01:03:32.975Z,100524.63
2023-05-19T01:06:04.963Z,100532.75
2023-05-19T01:08:35.009Z,100521.13
2023-05-19T01:11:02.530Z,100522.63
2023-05-19T01:13:30.012Z,100520.41
2023-05-19T01:16:08.238Z,100524.31
2023-05-19T01:18:56.249Z,100524.75
2023-05-19T01:22:03.443Z,100523.75
2023-05-19T01:24:56.406Z,100513.34
2023-05-19T01:27:48.101Z,100516.84
2023-05-19T01:30:37.577Z,100517.09
2023-05-19T01:33:07.961Z,100507.16
2023-05-19T01:35:37.375Z,100515.44
2023-05-19T01:38:05.604Z,100515.16
2023-05-19T01:40:39.238Z,100506.75
2023-05-19T01:43:08.749Z,100508.53
2023-05-19T01:45:36.106Z,100510.09
2023-05-19T01:48:04.993Z,100521.88
2023-05-19T01:50:33.372Z,100507.25
2023-05-19T01:53:01.406Z,100505.44
2023-05-19T01:55:28.565Z,100508.91
2023-05-19T01:58:13.780Z,100514.50
2023-05-19T02:00:54.761Z,100516.19
2023-05-19T02:03:30.286Z,100515.97
2023-05-19T02:06:12.575Z,100515.31
2023-05-19T02:08:46.588Z,100524.19
2023-05-19T02:11:22.278Z,100530.13
2023-05-19T02:13:51.495Z,100520.63
2023-05-19T02:16:18.827Z,100517.38
2023-05-19T02:18:46.343Z,100521.41
2023-05-19T02:21:13.729Z,100525.63
2023-05-19T02:23:42.095Z,100528.03
2023-05-19T02:26:09.206Z,100524.97
2023-05-19T02:28:36.709Z,100520.34
2023-05-19T02:31:05.481Z,100528.09
2023-05-19T02:33:32.553Z,100526.13
2023-05-19T02:35:59.762Z,100534.66
2023-05-19T02:38:26.825Z,100519.69
2023-05-19T02:40:53.752Z,100518.31
2023-05-19T02:43:20.714Z,100517.59
2023-05-19T02:45:47.686Z,100515.38
2023-05-19T02:48:14.683Z,100512.88
2023-05-19T02:50:41.606Z,100513.81
2023-05-19T02:53:08.548Z,100518.97
2023-05-19T02:55:35.605Z,100518.31
2023-05-19T02:58:02.516Z,100516.25
2023-05-19T03:00:29.449Z,100520.03
2023-05-19T03:02:56.437Z,100521.44
2023-05-19T03:05:23.474Z,100515.38
2023-05-19T03:07:50.444Z,100515.81
2023-05-19T03:10:17.519Z,100515.13
2023-05-19T03:12:44.548Z,100521.03
2023-05-19T03:15:13.152Z,100516.94
2023-05-19T03:17:41.006Z,100503.88
2023-05-19T03:20:08.408Z,100516.38
2023-05-19T03:22:35.293Z,100513.16
2023-05-19T03:25:03.396Z,100514.53
2023-05-19T03:27:30.189Z,100513.25
2023-05-19T03:29:56.926Z,100511.31
2023-05-19T03:32:24.116Z,100511.75
2023-05-19T03:34:51.046Z,100508.94
2023-05-19T03:37:17.743Z,100508.50
2023-05-19T03:39:45.202Z,100512.03
2023-05-19T03:42:12.017Z,100516.94
2023-05-19T03:44:38.781Z,100507.53
2023-05-19T03:47:05.913Z,100508.09
2023-05-19T03:50:02.150Z,100509.47
2023-05-19T03:52:55.164Z,100514.94
2023-05-19T03:55:29.942Z,100505.66
2023-05-19T03:57:57.116Z,100505.72
2023-05-19T04:00:24.017Z,100513.13
2023-05-19T04:02:51.240Z,100515.81
2023-05-19T04:05:18.063Z,100521.25
2023-05-19T04:07:46.618Z,100517.59
2023-05-19T04:10:13.701Z,100522.69
2023-05-19T04:12:40.802Z,100517.88
2023-05-19T04:15:11.399Z,100520.84
2023-05-19T04:17:38.402Z,100531.19
2023-05-19T04:20:08.770Z,100528.53
2023-05-19T04:22:35.503Z,100525.06
2023-05-19T04:25:03.929Z,100528.03
2023-05-19T04:27:31.945Z,100532.75
2023-05-19T04:29:59.442Z,100529.41
2023-05-19T04:32:26.322Z,100522.41
2023-05-19T04:34:54.496Z,100530.13
2023-05-19T04:37:26.073Z,100527.59
2023-05-19T04:39:53.109Z,100520.47
2023-05-19T04:42:22.407Z,100525.66
2023-05-19T04:44:51.677Z,100523.81
2023-05-19T04:47:21.419Z,100532.69
2023-05-19T04:49:48.934Z,100532.94
2023-05-19T04:52:15.925Z,100530.59
2023-05-19T04:54:42.712Z,100533.25
2023-05-19T04:57:12.866Z,100538.19
2023-05-19T04:59:40.234Z,100533.81
2023-05-19T05:02:08.342Z,100538.63
2023-05-19T05:04:37.453Z,100541.28
2023-05-19T05:07:04.328Z,100538.63
2023-05-19T05:09:31.099Z,100532.75
2023-05-19T05:12:00.056Z,100535.41
2023-05-19T05:14:27.141Z,100528.13
2023-05-19T05:16:54.376Z,100527.84
2023-05-19T05:19:24.116Z,100518.06
2023-05-19T05:21:52.139Z,100522.91
2023-05-19T05:24:19.748Z,100518.63
2023-05-19T05:26:51.373Z,100523.50
2023-05-19T05:29:18.115Z,100530.13
2023-05-19T05:31:44.907Z,100521.00
2023-05-19T05:34:11.694Z,100523.94
2023-05-19T05:36:38.478Z,100526.06
2023-05-19T05:39:05.682Z,100524.38
2023-05-19T05:41:35.528Z,100523.34
2023-05-19T05:44:08.206Z,100515.47
2023-05-19T05:46:35.269Z,100524.03
2023-05-19T05:49:02.431Z,100521.38
2023-05-19T05:51:29.891Z,100517.06
2023-05-19T05:53:57.628Z,100514.38
2023-05-19T05:56:33.769Z,100518.72
2023-05-19T05:59:01.968Z,100520.69
2023-05-19T06:01:30.427Z,100523.78
2023-05-19T06:03:57.152Z,100518.88
2023-05-19T06:06:24.538Z,100516.50
2023-05-19T06:08:53.046Z,100514.38
2023-05-19T06:11:21.364Z,100510.63
2023-05-19T06:13:48.394Z,100512.00
2023-05-19T06:16:27.493Z,100517.75
2023-05-19T06:18:54.322Z,100513.28
2023-05-19T06:21:21.821Z,100517.34
2023-05-19T06:23:48.649Z,100515.78
2023-05-19T06:26:15.772Z,100510.34
2023-05-19T06:28:42.560Z,100505.97
2023-05-19T06:31:09.426Z,100509.47
2023-05-19T06:33:56.509Z,100522.13
2023-05-19T06:36:23.305Z,100508.34
2023-05-19T06:38:52.879Z,100516.38
2023-05-19T06:41:21.632Z,100510.59
2023-05-19T06:43:49.162Z,100510.31
2023-05-19T06:46:17.775Z,100516.94
2023-05-19T06:48:44.846Z,100512.88
2023-05-19T06:51:11.723Z,100525.22
2023-05-19T06:53:40.405Z,100505.56
2023-05-19T06:56:09.138Z,100510.31
2023-05-19T06:58:39.390Z,100504.72
2023-05-19T07:01:06.358Z,100510.31
2023-05-19T07:03:39.779Z,100514.69
2023-05-19T07:06:08.557Z,100502.47
2023-05-19T07:08:39.423Z,100509.19
2023-05-19T07:11:07.858Z,100505.97
2023-05-19T07:13:34.838Z,100505.16
2023-05-19T07:16:01.771Z,100499.22
2023-05-19T07:18:31.833Z,100504.44
2023-05-19T07:20:58.917Z,100499.38
2023-05-19T07:23:26.076Z,100489.97
2023-05-19T07:25:58.884Z,100497.69
2023-05-19T07:28:25.629Z,100502.31
2023-05-19T07:30:53.179Z,100495.72
2023-05-19T07:33:19.944Z,100492.34
2023-05-19T07:35:46.851Z,100487.81
2023-05-19T07:38:13.633Z,100486.56
2023-05-19T07:40:40.332Z,100483.44
2023-05-19T07:43:07.096Z,100478.38
2023-05-19T07:45:33.856Z,100476.00
2023-05-19T07:48:00.938Z,100480.06
2023-05-19T07:50:27.761Z,100468.22
2023-05-19T07:52:54.515Z,100481.47
2023-05-19T07:55:23.115Z,100476.72
2023-05-19T07:57:50.845Z,100481.06
2023-05-19T08:00:17.836Z,100472.03
2023-05-19T08:02:44.959Z,100470.91
2023-05-19T08:05:11.774Z,100466.56
2023-05-19T08:07:38.641Z,100469.09
2023-05-19T08:10:05.733Z,100453.88
2023-05-19T08:12:32.549Z,100464.72
2023-05-19T08:15:01.311Z,100462.44
2023-05-19T08:17:28.608Z,100465.41
2023-05-19T08:19:55.483Z,100468.22
2023-05-19T08:22:22.148Z,100475.78
2023-05-19T08:24:49.803Z,100465.09
2023-05-19T08:27:16.715Z,100453.59
2023-05-19T08:29:43.477Z,100459.16
2023-05-19T08:32:12.415Z,100450.31
2023-05-19T08:34:39.981Z,100454.09
2023-05-19T08:37:07.686Z,100458.53
2023-05-19T08:39:34.836Z,100452.78
2023-05-19T08:42:02.338Z,100453.03
2023-05-19T08:44:30.814Z,100444.50
2023-05-19T08:47:01.437Z,100448.31
2023-05-19T08:49:28.512Z,100436.75
2023-05-19T08:52:13.931Z,100427.88
2023-05-19T08:54:48.268Z,100430.25
2023-05-19T08:57:15.094Z,100428.28
2023-05-19T08:59:43.250Z,100426.16
2023-05-19T09:02:11.560Z,100429.94
2023-05-19T09:04:39.208Z,100420.53
2023-05-19T09:07:06.318Z,100417.53
2023-05-19T09:09:33.059Z,100422.59
2023-05-19T09:11:59.765Z,100433.84
2023-05-19T09:14:26.761Z,100421.69
2023-05-19T09:16:54.090Z,100421.78
2023-05-19T09:19:21.322Z,100419.03
2023-05-19T09:21:59.456Z,100424.63
2023-05-19T09:24:26.274Z,100413.44
2023-05-19T09:26:57.711Z,100419.34
2023-05-19T09:29:26.125Z,100412.84
2023-05-19T09:31:54.719Z,100420.66
2023-05-19T09:34:25.007Z,100419.88
2023-05-19T09:36:53.276Z,100403.22
2023-05-19T09:39:21.490Z,100409.09
2023-05-19T09:41:52.619Z,100412.22
2023-05-19T09:44:30.207Z,100417.59
2023-05-19T09:46:58.423Z,100403.31
2023-05-19T09:49:30.171Z,100414.22
2023-05-19T09:51:57.895Z,100399.94
2023-05-19T09:54:25.192Z,100401.84
2023-05-19T09:56:59.907Z,100391.44
2023-05-19T09:59:29.010Z,100405.34
2023-05-19T10:01:59.754Z,100398.38
2023-05-19T10:04:28.082Z,100389.50
2023-05-19T10:06:56.081Z,100394.59
2023-05-19T10:09:25.047Z,100408.97
2023-05-19T10:11:53.354Z,100392.78
2023-05-19T10:14:27.657Z,100396.09
2023-05-19T10:16:56.225Z,100385.09
2023-05-19T10:19:24.962Z,100391.97
2023-05-19T10:21:52.549Z,100390.28
2023-05-19T10:24:19.880Z,100384.31
2023-05-19T10:26:53.229Z,100381.63
2023-05-19T10:29:23.207Z,100385.47
2023-05-19T10:31:50.895Z,100402.66
2023-05-19T10:34:54.245Z,100380.19
2023-05-19T10:37:59.622Z,100377.88
2023-05-19T10:41:03.956Z,100382.94
2023-05-19T10:43:49.734Z,100376.22
2023-05-19T10:46:16.516Z,100392.81
2023-05-19T10:48:46.477Z,100373.91
2023-05-19T10:51:14.905Z,100388.00
2023-05-19T10:53:46.316Z,100376.59
2023-05-19T10:56:33.004Z,100386.59
2023-05-19T10:59:00.192Z,100370.44
2023-05-19T11:01:38.220Z,100375.28
2023-05-19T11:04:12.133Z,100370.63
2023-05-19T11:06:40.341Z,100373.13
2023-05-19T11:09:31.060Z,100372.28
2023-05-19T11:12:05.048Z,100377.31
2023-05-19T11:14:32.315Z,100373.31
2023-05-19T11:17:00.295Z,100371.78
2023-05-19T11:19:31.471Z,100376.97
2023-05-19T11:22:11.710Z,100370.03
2023-05-19T11:24:46.341Z,100367.41
2023-05-19T11:27:28.034Z,100378.44
2023-05-19T11:29:56.236Z,100366.56
2023-05-19T11:32:26.877Z,100368.22
2023-05-19T11:34:55.655Z,100369.25
2023-05-19T11:37:22.418Z,100367.41
2023-05-19T11:39:49.577Z,100355.22
2023-05-19T11:42:16.434Z,100377.28
2023-05-19T11:44:46.371Z,100363.38
2023-05-19T11:47:14.094Z,100351.56
2023-05-19T11:49:51.975Z,100353.78
2023-05-19T11:52:22.018Z,100347.72
2023-05-19T11:54:49.458Z,100370.03
2023-05-19T11:57:16.554Z,100360.03
2023-05-19T11:59:48.150Z,100359.72
2023-05-19T12:02:22.942Z,100361.19
2023-05-19T12:04:49.787Z,100361.25
2023-05-19T12:07:18.242Z,100362.75
2023-05-19T12:09:48.587Z,100363.44
2023-05-19T12:12:20.273Z,100371.66
2023-05-19T12:14:48.576Z,100359.44
2023-05-19T12:17:17.541Z,100360.63
2023-05-19T12:19:45.942Z,100366.31
2023-05-19T12:22:13.337Z,100372.97
2023-05-19T12:24:40.460Z,100352.00
2023-05-19T12:27:14.729Z,100361.06
2023-05-19T12:29:41.484Z,100359.22
2023-05-19T12:32:09.384Z,100364.88
2023-05-19T12:34:39.427Z,100362.03
2023-05-19T12:37:06.222Z,100355.22
2023-05-19T12:39:33.674Z,100366.44
2023-05-19T12:42:02.655Z,100359.78
2023-05-19T12:44:31.296Z,100374.38
2023-05-19T12:46:59.486Z,100369.16
2023-05-19T12:49:26.272Z,100365.66
2023-05-19T12:51:53.921Z,100363.13
2023-05-19T12:54:23.816Z,100366.81
2023-05-19T12:56:52.103Z,100365.81
2023-05-19T12:59:34.844Z,100359.59
2023-05-19T13:02:05.140Z,100353.28
2023-05-19T13:04:32.086Z,100362.66
2023-05-19T13:06:58.826Z,100353.78
2023-05-19T13:09:25.735Z,100359.00
2023-05-19T13:11:53.986Z,100359.28
2023-05-19T13:14:21.937Z,100345.06
2023-05-19T13:16:48.896Z,100359.78
2023-05-19T13:19:25.278Z,100340.69
2023-05-19T13:21:52.976Z,100360.97
2023-05-19T13:24:19.858Z,100349.91
2023-05-19T13:26:48.008Z,100345.38
2023-05-19T13:29:15.125Z,100343.53
2023-05-19T13:31:42.048Z,100344.25
2023-05-19T13:34:08.909Z,100343.88
2023-05-19T13:36:36.478Z,100349.44
2023-05-19T13:39:03.470Z,100349.72
2023-05-19T13:41:30.283Z,100345.69
2023-05-19T13:43:59.172Z,100340.69
2023-05-19T13:46:36.540Z,100340.00
2023-05-19T13:49:11.310Z,100345.38
2023-05-19T13:51:39.419Z,100342.84
2023-05-19T13:54:06.186Z,100336.84
2023-05-19T13:56:32.922Z,100346.03
2023-05-19T13:58:59.721Z,100346.69
2023-05-19T14:01:26.520Z,100339.81
2023-05-19T14:03:53.509Z,100340.16
2023-05-19T14:06:20.444Z,100338.13
2023-05-19T14:08:47.229Z,100334.50
2023-05-19T14:11:21.691Z,100323.09
2023-05-19T14:13:52.867Z,100313.91
2023-05-19T14:16:22.077Z,100314.59
2023-05-19T14:18:49.426Z,100312.06
2023-05-19T14:21:16.314Z,100305.38
2023-05-19T14:23:43.109Z,100304.38
2023-05-19T14:26:09.881Z,100295.84
2023-05-19T14:28:36.645Z,100300.06
2023-05-19T14:31:03.551Z,100300.06
2023-05-19T14:33:34.917Z,100294.41
2023-05-19T14:36:02.373Z,100284.19
2023-05-19T14:38:29.685Z,100282.69
2023-05-19T14:40:56.858Z,100283.22
2023-05-19T14:43:23.763Z,100286.91
2023-05-19T14:45:50.554Z,100277.53
2023-05-19T14:48:17.761Z,100281.56
2023-05-19T14:50:44.835Z,100272.53
2023-05-19T14:53:11.761Z,100271.53
2023-05-19T14:55:38.649Z,100270.84
2023-05-19T14:58:13.090Z,100270.00
2023-05-19T15:00:47.787Z,100274.03
2023-05-19T15:03:14.604Z,100271.63
2023-05-19T15:05:41.590Z,100262.59
2023-05-19T15:08:08.374Z,100262.59
2023-05-19T15:10:35.321Z,100259.25
2023-05-19T15:13:02.081Z,100253.19
2023-05-19T15:15:28.783Z,100254.22
2023-05-19T15:17:55.650Z,100264.13
2023-05-19T15:20:22.565Z,100259.94
2023-05-19T15:22:49.453Z,100265.97
2023-05-19T15:25:16.319Z,100251.34
2023-05-19T15:27:43.070Z,100256.72
2023-05-19T15:30:09.953Z,100250.38
2023-05-19T15:32:36.795Z,100251.06
2023-05-19T15:35:03.719Z,100254.56
2023-05-19T15:37:30.657Z,100254.38
2023-05-19T15:39:58.476Z,100240.00
2023-05-19T15:42:26.023Z,100245.16
2023-05-19T15:44:52.755Z,100247.84
2023-05-19T15:47:19.612Z,100245.34
2023-05-19T15:49:46.364Z,100238.13
2023-05-19T15:52:13.131Z,100240.66
2023-05-19T15:54:39.924Z,100232.63
2023-05-19T15:57:06.837Z,100232.47
2023-05-19T15:59:33.704Z,100232.31
2023-05-19T16:02:00.527Z,100221.59
2023-05-19T16:04:27.349Z,100219.59
2023-05-19T16:06:54.207Z,100221.09
2023-05-19T16:09:21.096Z,100217.41
2023-05-19T16:11:47.856Z,100214.56
2023-05-19T16:14:14.782Z,100216.91
2023-05-19T16:16:41.812Z,100211.34
2023-05-19T16:19:08.983Z,100198.78
2023-05-19T16:21:36.018Z,100203.63
2023-05-19T16:24:02.797Z,100201.63
2023-05-19T16:26:29.598Z,100192.59
2023-05-19T16:28:56.467Z,100184.53
2023-05-19T16:31:23.308Z,100191.22
2023-05-19T16:33:50.045Z,100185.88
2023-05-19T16:36:16.873Z,100187.56
2023-05-19T16:38:43.646Z,100182.00
2023-05-19T16:41:13.509Z,100175.97
2023-05-19T16:43:40.415Z,100168.59
2023-05-19T16:46:07.283Z,100175.47
2023-05-19T16:48:34.036Z,100170.09
2023-05-19T16:51:00.885Z,100162.72
2023-05-19T16:53:27.631Z,100155.50
2023-05-19T16:55:54.473Z,100165.25
2023-05-19T16:58:21.533Z,100161.38
2023-05-19T17:00:51.625Z,100164.22
2023-05-19T17:03:18.753Z,100156.84
2023-05-19T17:05:45.799Z,100155.16
2023-05-19T17:08:12.668Z,100156.84
2023-05-19T17:10:39.465Z,100161.38
2023-05-19T17:13:06.185Z,100157.19
2023-05-19T17:15:33.769Z,100150.97
2023-05-19T17:18:00.814Z,100154.00
2023-05-19T17:20:27.657Z,100154.19
2023-05-19T17:22:54.406Z,100142.59
2023-05-19T17:25:21.288Z,100146.44
2023-05-19T17:27:48.074Z,100152.00
2023-05-19T17:30:14.848Z,100155.66
2023-05-19T17:32:41.977Z,100155.88
2023-05-19T17:35:08.833Z,100152.50
2023-05-19T17:37:36.306Z,100157.03
2023-05-19T17:40:03.101Z,100162.56
2023-05-19T17:42:31.542Z,100156.53
2023-05-19T17:44:58.459Z,100153.84
2023-05-19T17:47:25.275Z,100154.03
2023-05-19T17:52:20.554Z,100157.88
2023-05-19T17:54:47.759Z,100158.88
2023-05-19T17:57:15.807Z,100156.19
2023-05-19T17:59:42.661Z,100152.88
2023-05-19T18:02:10.309Z,100151.00
2023-05-19T18:04:37.561Z,100148.69
2023-05-19T18:07:04.669Z,100149.66
2023-05-19T18:09:33.322Z,100147.16
2023-05-19T18:12:02.201Z,100147.47
2023-05-19T18:14:29.217Z,100146.66
2023-05-19T18:16:56.058Z,100135.09
2023-05-19T18:19:23.014Z,100138.91
2023-05-19T18:21:49.884Z,100138.25
2023-05-19T18:24:16.726Z,100140.91
2023-05-19T18:26:43.477Z,100134.06
2023-05-19T18:29:10.901Z,100137.75
2023-05-19T18:31:37.814Z,100134.38
2023-05-19T18:34:04.647Z,100133.72
2023-05-19T18:36:31.644Z,100140.09
2023-05-19T18:39:01.888Z,100134.06
2023-05-19T18:41:28.733Z,100136.75
2023-05-19T18:43:55.513Z,100136.06
2023-05-19T18:46:23.539Z,100136.22
2023-05-19T18:48:50.710Z,100132.88
2023-05-19T18:51:18.688Z,100131.19
2023-05-19T18:53:48.505Z,100134.06
2023-05-19T18:56:26.089Z,100130.38
2023-05-19T18:58:54.157Z,100128.38
2023-05-19T19:01:21.031Z,100127.69
2023-05-19T19:03:49.317Z,100131.53
2023-05-19T19:06:20.820Z,100127.00
2023-05-19T19:08:47.677Z,100131.88
2023-05-19T19:11:14.505Z,100131.88
2023-05-19T19:13:41.293Z,100136.38
2023-05-19T19:16:07.986Z,100138.41
2023-05-19T19:18:36.382Z,100133.19
2023-05-19T19:21:05.410Z,100141.25
2023-05-19T19:23:32.530Z,100146.59
2023-05-19T19:25:59.387Z,100140.91
2023-05-19T19:28:26.600Z,100139.25
2023-05-19T19:30:53.382Z,100139.38
2023-05-19T19:33:20.253Z,100145.59
2023-05-19T19:35:47.193Z,100146.59
2023-05-19T19:38:14.406Z,100150.44
2023-05-19T19:40:41.435Z,100149.63
2023-05-19T19:43:08.487Z,100148.59
2023-05-19T19:45:36.410Z,100152.09
2023-05-19T19:48:03.276Z,100153.97
2023-05-19T19:50:30.139Z,100151.44
2023-05-19T19:52:56.908Z,100149.63
2023-05-19T19:55:23.740Z,100157.66
2023-05-19T19:57:51.238Z,100158.81
2023-05-19T20:00:18.528Z,100165.84
2023-05-19T20:03:02.830Z,100158.81
2023-05-19T20:05:30.202Z,100154.28
2023-05-19T20:07:57.012Z,100159.47
2023-05-19T20:10:23.768Z,100165.00
2023-05-19T20:12:50.716Z,100168.19
2023-05-19T20:15:17.687Z,100165.50
2023-05-19T20:17:44.465Z,100162.16
2023-05-19T20:20:12.286Z,100163.84
2023-05-19T20:22:39.389Z,100166.34
2023-05-19T20:25:06.566Z,100165.34
2023-05-19T20:27:33.337Z,100159.81
2023-05-19T20:30:00.335Z,100170.72
2023-05-19T20:32:27.115Z,100161.84
2023-05-19T20:34:53.896Z,100165.50
2023-05-19T20:37:22.077Z,100161.66
2023-05-19T20:39:49.118Z,100161.16
2023-05-19T20:42:16.314Z,100154.63
2023-05-19T20:44:43.224Z,100161.81
2023-05-19T20:47:10.496Z,100156.78
2023-05-19T20:49:37.242Z,100153.25
2023-05-19T20:52:04.183Z,100154.09
2023-05-19T20:54:30.980Z,100154.78
2023-05-19T20:56:57.682Z,100162.81
2023-05-19T20:59:24.420Z,100163.84
2023-05-19T21:01:51.287Z,100153.94
2023-05-19T21:04:18.128Z,100149.41
2023-05-19T21:06:45.110Z,100154.78
2023-05-19T21:09:11.911Z,100164.19
2023-05-19T21:11:38.623Z,100159.81
2023-05-19T21:14:07.337Z,100157.97
2023-05-19T21:16:34.552Z,100165.00
2023-05-19T21:19:01.953Z,100152.78
2023-05-19T21:21:28.855Z,100159.66
2023-05-19T21:23:55.590Z,100159.66
2023-05-19T21:26:22.469Z,100159.81
2023-05-19T21:28:49.249Z,100153.13
2023-05-19T21:31:16.255Z,100157.13
2023-05-19T21:33:43.018Z,100151.59
2023-05-19T21:36:09.788Z,100153.59
2023-05-19T21:38:36.531Z,100152.59
2023-05-19T21:41:03.306Z,100158.78
2023-05-19T21:43:30.087Z,100156.44
2023-05-19T21:45:56.918Z,100160.97
2023-05-19T21:48:23.707Z,100157.13
2023-05-19T21:50:54.677Z,100153.75
2023-05-19T21:53:21.481Z,100162.47
2023-05-19T21:55:48.289Z,100159.63
2023-05-19T21:58:15.044Z,100160.81
2023-05-19T22:00:41.916Z,100156.44
2023-05-19T22:03:08.880Z,100160.81
2023-05-19T22:05:37.964Z,100159.47
2023-05-19T22:08:04.817Z,100160.63
2023-05-19T22:10:31.967Z,100165.16
2023-05-19T22:12:58.938Z,100165.16
2023-05-19T22:15:26.706Z,100164.31
2023-05-19T22:17:53.721Z,100158.78
2023-05-19T22:20:20.550Z,100155.59
2023-05-19T22:22:47.271Z,100146.38
2023-05-19T22:25:14.032Z,100145.69
2023-05-19T22:27:40.781Z,100149.22
2023-05-19T22:30:07.996Z,100146.72
2023-05-19T22:32:35.155Z,100141.66
2023-05-19T22:35:01.950Z,100140.34
2023-05-19T22:37:28.977Z,100134.50
2023-05-19T22:39:55.834Z,100132.78
2023-05-19T22:42:22.702Z,100133.13
2023-05-19T22:44:49.579Z,100132.28
2023-05-19T22:47:16.380Z,100142.53
2023-05-19T22:49:43.297Z,100137.31
2023-05-19T22:52:11.033Z,100141.00
2023-05-19T22:54:38.032Z,100144.53
2023-05-19T22:57:05.262Z,100145.50
2023-05-19T22:59:32.113Z,100141.84
2023-05-19T23:01:58.986Z,100140.81
2023-05-19T23:04:26.030Z,100138.16
2023-05-19T23:06:52.881Z,100137.16
2023-05-19T23:09:19.658Z,100136.16
2023-05-19T23:11:46.482Z,100138.69
2023-05-19T23:14:13.490Z,100143.72
2023-05-19T23:16:40.358Z,100141.03
2023-05-19T23:19:07.239Z,100134.66
2023-05-19T23:21:34.130Z,100141.53
2023-05-19T23:24:00.944Z,100141.19
2023-05-19T23:26:27.856Z,100137.53
2023-05-19T23:28:54.620Z,100147.22
2023-05-19T23:31:21.358Z,100136.38
2023-05-19T23:33:48.106Z,100135.53
2023-05-19T23:36:15.574Z,100131.34
2023-05-19T23:38:42.286Z,100138.38
2023-05-19T23:41:09.053Z,100137.34
2023-05-19T23:43:35.889Z,100136.50
2023-05-19T23:46:02.803Z,100130.81
2023-05-19T23:48:29.987Z,100137.81
2023-05-19T23:50:57.689Z,100132.16
2023-05-19T23:53:24.913Z,100142.69
2023-05-19T23:55:51.764Z,100133.81
2023-05-19T23:58:18.794Z,100139.03
